sensor_id;sensor_type;location;lat;lon;timestamp;temperature;humidity
41882;DHT22;27562;47.524;12.404;2023-04-03T00:02:08;3.70;99.90
41882;DHT22;27562;47.524;12.404;2023-04-03T00:04:33;3.70;99.90
41882;DHT22;27562;47.524;12.404;2023-04-03T00:07:00;3.80;99.90
41882;DHT22;27562;47.524;12.404;2023-04-03T00:09:25;3.80;99.90
41882;DHT22;27562;47.524;12.404;2023-04-03T00:11:51;3.80;99.90
41882;DHT22;27562;47.524;12.404;2023-04-03T00:14:17;3.80;99.90
41882;DHT22;27562;47.524;12.404;2023-04-03T00:16:42;3.80;99.90
41882;DHT22;27562;47.524;12.404;2023-04-03T00:19:08;3.70;99.90
41882;DHT22;27562;47.524;12.404;2023-04-03T00:21:37;3.70;99.90
41882;DHT22;27562;47.524;12.404;2023-04-03T00:24:03;3.60;99.90
41882;DHT22;27562;47.524;12.404;2023-04-03T00:26:28;3.50;99.90
41882;DHT22;27562;47.524;12.404;2023-04-03T00:28:54;3.50;99.90
41882;DHT22;27562;47.524;12.404;2023-04-03T00:31:21;3.50;99.90
41882;DHT22;27562;47.524;12.404;2023-04-03T00:33:47;3.50;99.90
41882;DHT22;27562;47.524;12.404;2023-04-03T00:36:13;3.50;99.90
41882;DHT22;27562;47.524;12.404;2023-04-03T00:38:39;3.40;99.90
41882;DHT22;27562;47.524;12.404;2023-04-03T00:41:05;3.40;99.90
41882;DHT22;27562;47.524;12.404;2023-04-03T00:43:31;3.40;99.90
41882;DHT22;27562;47.524;12.404;2023-04-03T00:45:58;3.40;99.90
41882;DHT22;27562;47.524;12.404;2023-04-03T00:48:31;3.50;99.90
41882;DHT22;27562;47.524;12.404;2023-04-03T00:50:58;3.50;99.90
41882;DHT22;27562;47.524;12.404;2023-04-03T00:53:31;3.50;99.90
41882;DHT22;27562;47.524;12.404;2023-04-03T00:55:59;3.50;99.90
41882;DHT22;27562;47.524;12.404;2023-04-03T00:58:34;3.60;99.90
41882;DHT22;27562;47.524;12.404;2023-04-03T01:01:06;3.60;99.90
41882;DHT22;27562;47.524;12.404;2023-04-03T01:03:33;3.60;99.90
41882;DHT22;27562;47.524;12.404;2023-04-03T01:05:59;3.60;99.90
41882;DHT22;27562;47.524;12.404;2023-04-03T01:08:25;3.60;99.90
41882;DHT22;27562;47.524;12.404;2023-04-03T01:10:51;3.60;99.90
41882;DHT22;27562;47.524;12.404;2023-04-03T01:13:27;3.50;99.90
41882;DHT22;27562;47.524;12.404;2023-04-03T01:15:54;3.50;99.90
41882;DHT22;27562;47.524;12.404;2023-04-03T01:18:21;3.50;99.90
41882;DHT22;27562;47.524;12.404;2023-04-03T01:26:10;3.40;99.90
41882;DHT22;27562;47.524;12.404;2023-04-03T01:28:37;3.40;99.90
41882;DHT22;27562;47.524;12.404;2023-04-03T01:34:12;3.40;99.90
41882;DHT22;27562;47.524;12.404;2023-04-03T01:36:38;3.30;99.90
41882;DHT22;27562;47.524;12.404;2023-04-03T01:39:04;3.30;99.90
41882;DHT22;27562;47.524;12.404;2023-04-03T01:41:29;3.40;99.90
41882;DHT22;27562;47.524;12.404;2023-04-03T01:43:55;3.40;99.90
41882;DHT22;27562;47.524;12.404;2023-04-03T01:46:21;3.40;99.90
41882;DHT22;27562;47.524;12.404;2023-04-03T01:48:47;3.30;99.90
41882;DHT22;27562;47.524;12.404;2023-04-03T01:51:13;3.30;99.90
41882;DHT22;27562;47.524;12.404;2023-04-03T01:53:39;3.30;99.90
41882;DHT22;27562;47.524;12.404;2023-04-03T01:56:05;3.20;99.90
41882;DHT22;27562;47.524;12.404;2023-04-03T01:58:31;3.20;99.90
41882;DHT22;27562;47.524;12.404;2023-04-03T02:00:57;3.30;99.90
41882;DHT22;27562;47.524;12.404;2023-04-03T02:03:22;3.30;99.90
41882;DHT22;27562;47.524;12.404;2023-04-03T02:05:49;3.30;99.90
41882;DHT22;27562;47.524;12.404;2023-04-03T02:08:15;3.30;99.90
41882;DHT22;27562;47.524;12.404;2023-04-03T02:10:44;3.20;99.90
41882;DHT22;27562;47.524;12.404;2023-04-03T02:13:10;3.20;99.90
41882;DHT22;27562;47.524;12.404;2023-04-03T02:15:39;3.20;99.90
41882;DHT22;27562;47.524;12.404;2023-04-03T02:18:05;3.10;99.90
41882;DHT22;27562;47.524;12.404;2023-04-03T02:20:31;3.10;99.90
41882;DHT22;27562;47.524;12.404;2023-04-03T02:22:57;3.10;99.90
41882;DHT22;27562;47.524;12.404;2023-04-03T02:25:23;3.00;99.90
41882;DHT22;27562;47.524;12.404;2023-04-03T02:27:49;3.10;99.90
41882;DHT22;27562;47.524;12.404;2023-04-03T02:30:14;3.10;99.90
41882;DHT22;27562;47.524;12.404;2023-04-03T02:32:41;3.10;99.90
41882;DHT22;27562;47.524;12.404;2023-04-03T02:35:09;3.00;99.90
41882;DHT22;27562;47.524;12.404;2023-04-03T02:37:35;3.00;99.90
41882;DHT22;27562;47.524;12.404;2023-04-03T02:40:02;2.90;99.90
41882;DHT22;27562;47.524;12.404;2023-04-03T02:42:28;2.90;99.90
41882;DHT22;27562;47.524;12.404;2023-04-03T02:44:54;2.80;99.90
41882;DHT22;27562;47.524;12.404;2023-04-03T02:47:19;2.80;99.90
41882;DHT22;27562;47.524;12.404;2023-04-03T02:49:45;2.80;99.90
41882;DHT22;27562;47.524;12.404;2023-04-03T02:52:12;2.80;99.90
41882;DHT22;27562;47.524;12.404;2023-04-03T02:54:38;2.80;99.90
41882;DHT22;27562;47.524;12.404;2023-04-03T02:57:03;2.80;99.90
41882;DHT22;27562;47.524;12.404;2023-04-03T02:59:29;2.80;99.90
41882;DHT22;27562;47.524;12.404;2023-04-03T03:01:55;2.80;99.90
41882;DHT22;27562;47.524;12.404;2023-04-03T03:04:21;2.80;99.90
41882;DHT22;27562;47.524;12.404;2023-04-03T03:06:47;2.70;99.90
41882;DHT22;27562;47.524;12.404;2023-04-03T03:09:13;2.70;99.90
41882;DHT22;27562;47.524;12.404;2023-04-03T03:11:39;2.70;99.90
41882;DHT22;27562;47.524;12.404;2023-04-03T03:14:05;2.60;99.90
41882;DHT22;27562;47.524;12.404;2023-04-03T03:16:31;2.60;99.90
41882;DHT22;27562;47.524;12.404;2023-04-03T03:18:56;2.60;99.90
41882;DHT22;27562;47.524;12.404;2023-04-03T03:21:22;2.60;99.90
41882;DHT22;27562;47.524;12.404;2023-04-03T03:23:48;2.60;99.90
41882;DHT22;27562;47.524;12.404;2023-04-03T03:26:14;2.60;99.90
41882;DHT22;27562;47.524;12.404;2023-04-03T03:28:40;2.50;99.90
41882;DHT22;27562;47.524;12.404;2023-04-03T03:31:07;2.50;99.90
41882;DHT22;27562;47.524;12.404;2023-04-03T03:33:33;2.50;99.90
41882;DHT22;27562;47.524;12.404;2023-04-03T03:35:59;2.50;99.90
41882;DHT22;27562;47.524;12.404;2023-04-03T03:38:25;2.50;99.90
41882;DHT22;27562;47.524;12.404;2023-04-03T03:40:51;2.50;99.90
41882;DHT22;27562;47.524;12.404;2023-04-03T03:43:18;2.40;99.90
41882;DHT22;27562;47.524;12.404;2023-04-03T03:45:44;2.40;99.90
41882;DHT22;27562;47.524;12.404;2023-04-03T03:48:11;2.40;99.90
41882;DHT22;27562;47.524;12.404;2023-04-03T03:50:37;2.50;99.90
41882;DHT22;27562;47.524;12.404;2023-04-03T03:53:03;2.50;99.90
41882;DHT22;27562;47.524;12.404;2023-04-03T03:55:28;2.40;99.90
41882;DHT22;27562;47.524;12.404;2023-04-03T03:57:54;2.50;99.90
41882;DHT22;27562;47.524;12.404;2023-04-03T04:00:20;2.40;99.90
41882;DHT22;27562;47.524;12.404;2023-04-03T04:02:46;2.40;99.90
41882;DHT22;27562;47.524;12.404;2023-04-03T04:05:12;2.50;99.90
41882;DHT22;27562;47.524;12.404;2023-04-03T04:07:38;2.50;99.90
41882;DHT22;27562;47.524;12.404;2023-04-03T04:10:04;2.50;99.90
41882;DHT22;27562;47.524;12.404;2023-04-03T04:12:30;2.50;99.90
41882;DHT22;27562;47.524;12.404;2023-04-03T04:14:56;2.50;99.90
41882;DHT22;27562;47.524;12.404;2023-04-03T04:17:21;2.40;99.90
41882;DHT22;27562;47.524;12.404;2023-04-03T04:19:47;2.40;99.90
41882;DHT22;27562;47.524;12.404;2023-04-03T04:22:13;2.40;99.90
41882;DHT22;27562;47.524;12.404;2023-04-03T04:24:39;2.40;99.90
41882;DHT22;27562;47.524;12.404;2023-04-03T04:27:05;2.40;99.90
41882;DHT22;27562;47.524;12.404;2023-04-03T04:29:30;2.40;99.90
41882;DHT22;27562;47.524;12.404;2023-04-03T04:32:01;2.40;99.90
41882;DHT22;27562;47.524;12.404;2023-04-03T04:34:27;2.40;99.90
41882;DHT22;27562;47.524;12.404;2023-04-03T04:36:53;2.40;99.90
41882;DHT22;27562;47.524;12.404;2023-04-03T04:39:19;2.40;99.90
41882;DHT22;27562;47.524;12.404;2023-04-03T04:41:44;2.30;99.90
41882;DHT22;27562;47.524;12.404;2023-04-03T04:44:10;2.40;99.90
41882;DHT22;27562;47.524;12.404;2023-04-03T04:46:36;2.40;99.90
41882;DHT22;27562;47.524;12.404;2023-04-03T04:49:02;2.30;99.90
41882;DHT22;27562;47.524;12.404;2023-04-03T04:51:27;2.30;99.90
41882;DHT22;27562;47.524;12.404;2023-04-03T04:53:53;2.30;99.90
41882;DHT22;27562;47.524;12.404;2023-04-03T04:56:19;2.30;99.90
41882;DHT22;27562;47.524;12.404;2023-04-03T04:58:44;2.30;99.90
41882;DHT22;27562;47.524;12.404;2023-04-03T05:01:10;2.30;99.90
41882;DHT22;27562;47.524;12.404;2023-04-03T05:03:36;2.20;99.90
41882;DHT22;27562;47.524;12.404;2023-04-03T05:06:03;2.20;99.90
41882;DHT22;27562;47.524;12.404;2023-04-03T05:08:28;2.20;99.90
41882;DHT22;27562;47.524;12.404;2023-04-03T05:10:55;2.30;99.90
41882;DHT22;27562;47.524;12.404;2023-04-03T05:13:20;2.30;99.90
41882;DHT22;27562;47.524;12.404;2023-04-03T05:15:47;2.30;99.90
41882;DHT22;27562;47.524;12.404;2023-04-03T05:18:13;2.30;99.90
41882;DHT22;27562;47.524;12.404;2023-04-03T05:20:39;2.30;99.90
41882;DHT22;27562;47.524;12.404;2023-04-03T05:23:05;2.30;99.90
41882;DHT22;27562;47.524;12.404;2023-04-03T05:25:31;2.30;99.90
41882;DHT22;27562;47.524;12.404;2023-04-03T05:27:56;2.30;99.90
41882;DHT22;27562;47.524;12.404;2023-04-03T05:30:22;2.20;99.90
41882;DHT22;27562;47.524;12.404;2023-04-03T05:32:48;2.30;99.90
41882;DHT22;27562;47.524;12.404;2023-04-03T05:35:14;2.20;99.90
41882;DHT22;27562;47.524;12.404;2023-04-03T05:37:40;2.20;99.90
41882;DHT22;27562;47.524;12.404;2023-04-03T05:40:07;2.20;99.90
41882;DHT22;27562;47.524;12.404;2023-04-03T05:42:33;2.20;99.90
41882;DHT22;27562;47.524;12.404;2023-04-03T05:44:59;2.20;99.90
41882;DHT22;27562;47.524;12.404;2023-04-03T05:47:25;2.10;99.90
41882;DHT22;27562;47.524;12.404;2023-04-03T05:49:51;2.20;99.90
41882;DHT22;27562;47.524;12.404;2023-04-03T05:52:28;2.20;99.90
41882;DHT22;27562;47.524;12.404;2023-04-03T05:54:54;2.30;99.90
41882;DHT22;27562;47.524;12.404;2023-04-03T05:57:20;2.20;99.90
41882;DHT22;27562;47.524;12.404;2023-04-03T05:59:47;2.20;99.90
41882;DHT22;27562;47.524;12.404;2023-04-03T06:02:17;2.20;99.90
41882;DHT22;27562;47.524;12.404;2023-04-03T06:04:44;2.30;99.90
41882;DHT22;27562;47.524;12.404;2023-04-03T06:07:15;2.40;99.90
41882;DHT22;27562;47.524;12.404;2023-04-03T06:09:42;2.40;99.90
41882;DHT22;27562;47.524;12.404;2023-04-03T06:12:08;2.50;99.90
41882;DHT22;27562;47.524;12.404;2023-04-03T06:14:34;2.50;99.90
41882;DHT22;27562;47.524;12.404;2023-04-03T06:17:01;2.50;99.90
41882;DHT22;27562;47.524;12.404;2023-04-03T06:19:27;2.50;99.90
41882;DHT22;27562;47.524;12.404;2023-04-03T06:21:53;2.50;99.90
41882;DHT22;27562;47.524;12.404;2023-04-03T06:24:20;2.50;99.90
41882;DHT22;27562;47.524;12.404;2023-04-03T06:26:47;2.50;99.90
41882;DHT22;27562;47.524;12.404;2023-04-03T06:29:14;2.50;99.90
41882;DHT22;27562;47.524;12.404;2023-04-03T06:31:40;2.50;99.90
41882;DHT22;27562;47.524;12.404;2023-04-03T06:34:06;2.50;99.90
41882;DHT22;27562;47.524;12.404;2023-04-03T06:36:33;2.60;99.90
41882;DHT22;27562;47.524;12.404;2023-04-03T06:39:00;2.70;99.90
41882;DHT22;27562;47.524;12.404;2023-04-03T06:41:27;2.70;99.90
41882;DHT22;27562;47.524;12.404;2023-04-03T06:43:53;2.80;99.90
41882;DHT22;27562;47.524;12.404;2023-04-03T06:46:22;2.70;99.90
41882;DHT22;27562;47.524;12.404;2023-04-03T06:48:48;2.80;99.90
41882;DHT22;27562;47.524;12.404;2023-04-03T06:51:27;2.80;99.90
41882;DHT22;27562;47.524;12.404;2023-04-03T06:53:55;2.80;99.90
41882;DHT22;27562;47.524;12.404;2023-04-03T06:56:21;2.80;99.90
41882;DHT22;27562;47.524;12.404;2023-04-03T06:58:47;2.80;99.90
41882;DHT22;27562;47.524;12.404;2023-04-03T07:01:15;2.80;99.90
41882;DHT22;27562;47.524;12.404;2023-04-03T07:03:42;2.90;99.90
41882;DHT22;27562;47.524;12.404;2023-04-03T07:06:11;2.90;99.90
41882;DHT22;27562;47.524;12.404;2023-04-03T07:08:37;2.90;99.90
41882;DHT22;27562;47.524;12.404;2023-04-03T07:11:04;2.90;99.90
41882;DHT22;27562;47.524;12.404;2023-04-03T07:13:30;2.90;99.90
41882;DHT22;27562;47.524;12.404;2023-04-03T07:15:56;2.90;99.90
41882;DHT22;27562;47.524;12.404;2023-04-03T07:18:22;2.90;99.90
41882;DHT22;27562;47.524;12.404;2023-04-03T07:20:47;2.90;99.90
41882;DHT22;27562;47.524;12.404;2023-04-03T07:23:13;2.90;99.90
41882;DHT22;27562;47.524;12.404;2023-04-03T07:25:43;2.90;99.90
41882;DHT22;27562;47.524;12.404;2023-04-03T07:28:09;3.00;99.90
41882;DHT22;27562;47.524;12.404;2023-04-03T07:30:44;3.00;99.90
41882;DHT22;27562;47.524;12.404;2023-04-03T07:33:11;3.00;99.90
41882;DHT22;27562;47.524;12.404;2023-04-03T07:35:38;3.10;99.90
41882;DHT22;27562;47.524;12.404;2023-04-03T07:38:04;3.10;99.90
41882;DHT22;27562;47.524;12.404;2023-04-03T07:40:31;3.00;99.90
41882;DHT22;27562;47.524;12.404;2023-04-03T07:42:57;3.10;99.90
41882;DHT22;27562;47.524;12.404;2023-04-03T07:45:23;3.20;99.90
41882;DHT22;27562;47.524;12.404;2023-04-03T07:47:49;3.20;99.90
41882;DHT22;27562;47.524;12.404;2023-04-03T07:50:15;3.20;99.90
41882;DHT22;27562;47.524;12.404;2023-04-03T07:52:42;3.20;99.90
41882;DHT22;27562;47.524;12.404;2023-04-03T07:55:08;3.10;99.90
41882;DHT22;27562;47.524;12.404;2023-04-03T07:57:34;3.20;99.90
41882;DHT22;27562;47.524;12.404;2023-04-03T08:00:01;3.20;99.90
41882;DHT22;27562;47.524;12.404;2023-04-03T08:02:26;3.20;99.90
41882;DHT22;27562;47.524;12.404;2023-04-03T08:04:52;3.20;99.90
41882;DHT22;27562;47.524;12.404;2023-04-03T08:07:18;3.30;99.90
41882;DHT22;27562;47.524;12.404;2023-04-03T08:09:43;3.40;99.90
41882;DHT22;27562;47.524;12.404;2023-04-03T08:12:10;3.50;99.90
41882;DHT22;27562;47.524;12.404;2023-04-03T08:14:37;3.50;99.90
41882;DHT22;27562;47.524;12.404;2023-04-03T08:17:02;3.60;99.90
41882;DHT22;27562;47.524;12.404;2023-04-03T08:19:30;3.70;99.90
41882;DHT22;27562;47.524;12.404;2023-04-03T08:21:57;3.70;99.90
41882;DHT22;27562;47.524;12.404;2023-04-03T08:24:24;3.80;99.90
41882;DHT22;27562;47.524;12.404;2023-04-03T08:26:50;3.80;99.90
41882;DHT22;27562;47.524;12.404;2023-04-03T08:29:16;3.80;99.90
41882;DHT22;27562;47.524;12.404;2023-04-03T08:31:42;3.90;99.90
41882;DHT22;27562;47.524;12.404;2023-04-03T08:34:08;4.10;99.90
41882;DHT22;27562;47.524;12.404;2023-04-03T08:36:34;4.30;99.90
41882;DHT22;27562;47.524;12.404;2023-04-03T08:38:59;4.30;99.90
41882;DHT22;27562;47.524;12.404;2023-04-03T08:41:30;4.30;99.90
41882;DHT22;27562;47.524;12.404;2023-04-03T08:44:24;4.40;99.90
41882;DHT22;27562;47.524;12.404;2023-04-03T08:49:59;4.40;99.90
41882;DHT22;27562;47.524;12.404;2023-04-03T08:55:05;4.50;99.90
41882;DHT22;27562;47.524;12.404;2023-04-03T08:57:39;4.40;99.90
41882;DHT22;27562;47.524;12.404;2023-04-03T09:00:30;4.40;99.90
41882;DHT22;27562;47.524;12.404;2023-04-03T09:02:56;4.40;99.90
41882;DHT22;27562;47.524;12.404;2023-04-03T09:05:48;4.40;99.90
41882;DHT22;27562;47.524;12.404;2023-04-03T09:08:33;4.40;99.90
41882;DHT22;27562;47.524;12.404;2023-04-03T09:11:24;4.40;99.90
41882;DHT22;27562;47.524;12.404;2023-04-03T09:13:54;4.50;99.90
41882;DHT22;27562;47.524;12.404;2023-04-03T09:21:42;4.10;99.90
41882;DHT22;27562;47.524;12.404;2023-04-03T09:24:12;4.20;99.90
41882;DHT22;27562;47.524;12.404;2023-04-03T09:29:23;4.20;99.90
41882;DHT22;27562;47.524;12.404;2023-04-03T09:31:55;4.30;99.90
41882;DHT22;27562;47.524;12.404;2023-04-03T09:34:31;4.30;99.90
41882;DHT22;27562;47.524;12.404;2023-04-03T09:37:02;4.40;99.90
41882;DHT22;27562;47.524;12.404;2023-04-03T09:39:32;4.50;99.90
41882;DHT22;27562;47.524;12.404;2023-04-03T09:42:11;4.60;99.90
41882;DHT22;27562;47.524;12.404;2023-04-03T09:44:41;4.60;99.90
41882;DHT22;27562;47.524;12.404;2023-04-03T09:49:50;4.50;99.90
41882;DHT22;27562;47.524;12.404;2023-04-03T09:52:23;4.50;99.90
41882;DHT22;27562;47.524;12.404;2023-04-03T09:54:49;4.40;99.90
41882;DHT22;27562;47.524;12.404;2023-04-03T09:57:15;4.40;99.90
41882;DHT22;27562;47.524;12.404;2023-04-03T09:59:59;4.50;99.90
41882;DHT22;27562;47.524;12.404;2023-04-03T10:02:36;4.40;99.90
41882;DHT22;27562;47.524;12.404;2023-04-03T10:05:05;4.40;99.90
41882;DHT22;27562;47.524;12.404;2023-04-03T10:07:49;4.40;99.90
41882;DHT22;27562;47.524;12.404;2023-04-03T10:10:21;4.60;99.90
41882;DHT22;27562;47.524;12.404;2023-04-03T10:13:02;4.60;99.90
41882;DHT22;27562;47.524;12.404;2023-04-03T10:15:34;4.60;99.90
41882;DHT22;27562;47.524;12.404;2023-04-03T10:18:08;4.70;99.90
41882;DHT22;27562;47.524;12.404;2023-04-03T10:20:43;4.70;99.90
41882;DHT22;27562;47.524;12.404;2023-04-03T10:23:40;4.70;99.90
41882;DHT22;27562;47.524;12.404;2023-04-03T10:34:44;4.60;99.90
41882;DHT22;27562;47.524;12.404;2023-04-03T10:48:09;4.40;99.90
41882;DHT22;27562;47.524;12.404;2023-04-03T10:53:33;4.40;99.90
41882;DHT22;27562;47.524;12.404;2023-04-03T10:58:43;4.50;99.90
41882;DHT22;27562;47.524;12.404;2023-04-03T11:01:13;4.60;99.90
41882;DHT22;27562;47.524;12.404;2023-04-03T11:03:43;4.60;99.90
41882;DHT22;27562;47.524;12.404;2023-04-03T11:06:13;4.70;99.90
41882;DHT22;27562;47.524;12.404;2023-04-03T11:09:11;4.70;99.90
41882;DHT22;27562;47.524;12.404;2023-04-03T11:11:41;4.70;99.90
41882;DHT22;27562;47.524;12.404;2023-04-03T11:14:26;4.70;99.90
41882;DHT22;27562;47.524;12.404;2023-04-03T11:22:57;4.70;99.90
41882;DHT22;27562;47.524;12.404;2023-04-03T11:25:25;4.70;99.90
41882;DHT22;27562;47.524;12.404;2023-04-03T11:30:28;4.80;99.90
41882;DHT22;27562;47.524;12.404;2023-04-03T11:36:03;4.80;99.90
41882;DHT22;27562;47.524;12.404;2023-04-03T11:38:33;5.00;99.90
41882;DHT22;27562;47.524;12.404;2023-04-03T11:41:06;5.00;99.90
41882;DHT22;27562;47.524;12.404;2023-04-03T11:43:33;5.20;99.90
41882;DHT22;27562;47.524;12.404;2023-04-03T11:46:04;5.30;99.90
41882;DHT22;27562;47.524;12.404;2023-04-03T11:53:46;5.20;99.90
41882;DHT22;27562;47.524;12.404;2023-04-03T11:59:22;5.30;99.90
41882;DHT22;27562;47.524;12.404;2023-04-03T12:04:17;5.30;99.00
41882;DHT22;27562;47.524;12.404;2023-04-03T12:07:14;5.30;98.90
41882;DHT22;27562;47.524;12.404;2023-04-03T12:12:35;5.50;99.10
41882;DHT22;27562;47.524;12.404;2023-04-03T12:15:22;5.50;99.90
41882;DHT22;27562;47.524;12.404;2023-04-03T12:17:48;5.50;99.80
41882;DHT22;27562;47.524;12.404;2023-04-03T12:20:53;5.50;99.60
41882;DHT22;27562;47.524;12.404;2023-04-03T12:23:56;5.30;99.30
41882;DHT22;27562;47.524;12.404;2023-04-03T12:26:26;5.20;99.70
41882;DHT22;27562;47.524;12.404;2023-04-03T12:28:54;5.20;99.90
41882;DHT22;27562;47.524;12.404;2023-04-03T12:31:24;5.20;99.90
41882;DHT22;27562;47.524;12.404;2023-04-03T12:34:05;5.10;99.90
41882;DHT22;27562;47.524;12.404;2023-04-03T12:40:36;5.20;98.80
41882;DHT22;27562;47.524;12.404;2023-04-03T12:43:24;5.10;99.30
41882;DHT22;27562;47.524;12.404;2023-04-03T12:48:46;5.00;99.90
41882;DHT22;27562;47.524;12.404;2023-04-03T12:53:54;5.00;99.90
41882;DHT22;27562;47.524;12.404;2023-04-03T12:56:25;4.90;99.90
41882;DHT22;27562;47.524;12.404;2023-04-03T12:58:53;4.90;99.90
41882;DHT22;27562;47.524;12.404;2023-04-03T13:01:24;4.90;99.90
41882;DHT22;27562;47.524;12.404;2023-04-03T13:03:57;4.90;99.90
41882;DHT22;27562;47.524;12.404;2023-04-03T13:06:27;5.00;99.90
41882;DHT22;27562;47.524;12.404;2023-04-03T13:08:56;5.00;97.20
41882;DHT22;27562;47.524;12.404;2023-04-03T13:11:24;5.00;99.30
41882;DHT22;27562;47.524;12.404;2023-04-03T13:14:05;4.90;99.40
41882;DHT22;27562;47.524;12.404;2023-04-03T13:16:32;4.90;99.90
41882;DHT22;27562;47.524;12.404;2023-04-03T13:18:58;4.80;99.80
41882;DHT22;27562;47.524;12.404;2023-04-03T13:21:30;4.80;99.90
41882;DHT22;27562;47.524;12.404;2023-04-03T13:23:59;4.70;99.90
41882;DHT22;27562;47.524;12.404;2023-04-03T13:26:29;4.70;99.80
41882;DHT22;27562;47.524;12.404;2023-04-03T13:29:00;4.70;99.90
41882;DHT22;27562;47.524;12.404;2023-04-03T13:31:30;4.70;99.90
41882;DHT22;27562;47.524;12.404;2023-04-03T13:34:07;4.70;99.90
41882;DHT22;27562;47.524;12.404;2023-04-03T13:39:27;4.70;99.90
41882;DHT22;27562;47.524;12.404;2023-04-03T13:41:59;4.70;99.90
41882;DHT22;27562;47.524;12.404;2023-04-03T13:44:33;4.70;99.90
41882;DHT22;27562;47.524;12.404;2023-04-03T13:47:14;4.70;99.90
41882;DHT22;27562;47.524;12.404;2023-04-03T13:49:45;4.70;99.90
41882;DHT22;27562;47.524;12.404;2023-04-03T13:52:27;4.80;99.90
41882;DHT22;27562;47.524;12.404;2023-04-03T13:55:03;4.70;99.70
41882;DHT22;27562;47.524;12.404;2023-04-03T13:57:36;4.60;99.90
41882;DHT22;27562;47.524;12.404;2023-04-03T14:00:25;4.60;99.10
41882;DHT22;27562;47.524;12.404;2023-04-03T14:02:55;4.40;98.70
41882;DHT22;27562;47.524;12.404;2023-04-03T14:05:22;4.50;99.40
41882;DHT22;27562;47.524;12.404;2023-04-03T14:07:50;4.60;99.40
41882;DHT22;27562;47.524;12.404;2023-04-03T14:10:17;4.60;98.30
41882;DHT22;27562;47.524;12.404;2023-04-03T14:12:42;4.50;99.80
41882;DHT22;27562;47.524;12.404;2023-04-03T14:15:27;4.60;97.80
41882;DHT22;27562;47.524;12.404;2023-04-03T14:17:54;4.70;99.90
41882;DHT22;27562;47.524;12.404;2023-04-03T14:20:24;4.80;98.70
41882;DHT22;27562;47.524;12.404;2023-04-03T14:22:52;4.80;98.00
41882;DHT22;27562;47.524;12.404;2023-04-03T14:25:20;4.70;98.50
41882;DHT22;27562;47.524;12.404;2023-04-03T14:27:49;4.70;98.50
41882;DHT22;27562;47.524;12.404;2023-04-03T14:30:23;4.60;97.90
41882;DHT22;27562;47.524;12.404;2023-04-03T14:32:49;4.50;98.40
41882;DHT22;27562;47.524;12.404;2023-04-03T14:35:17;4.50;98.70
41882;DHT22;27562;47.524;12.404;2023-04-03T14:37:45;4.60;99.20
41882;DHT22;27562;47.524;12.404;2023-04-03T14:40:18;4.80;99.70
41882;DHT22;27562;47.524;12.404;2023-04-03T14:42:44;5.00;98.70
41882;DHT22;27562;47.524;12.404;2023-04-03T14:45:13;5.10;99.30
41882;DHT22;27562;47.524;12.404;2023-04-03T14:47:46;5.00;99.20
41882;DHT22;27562;47.524;12.404;2023-04-03T14:50:25;5.10;99.50
41882;DHT22;27562;47.524;12.404;2023-04-03T14:52:54;5.00;99.90
41882;DHT22;27562;47.524;12.404;2023-04-03T14:55:22;5.00;99.90
41882;DHT22;27562;47.524;12.404;2023-04-03T14:57:48;4.90;99.90
41882;DHT22;27562;47.524;12.404;2023-04-03T15:00:19;4.80;99.90
41882;DHT22;27562;47.524;12.404;2023-04-03T15:02:45;4.60;99.90
41882;DHT22;27562;47.524;12.404;2023-04-03T15:05:11;4.40;99.90
41882;DHT22;27562;47.524;12.404;2023-04-03T15:07:48;4.20;99.90
41882;DHT22;27562;47.524;12.404;2023-04-03T15:10:16;4.10;99.90
41882;DHT22;27562;47.524;12.404;2023-04-03T15:12:43;4.00;99.90
41882;DHT22;27562;47.524;12.404;2023-04-03T15:15:09;3.90;99.90
41882;DHT22;27562;47.524;12.404;2023-04-03T15:17:36;3.80;99.90
41882;DHT22;27562;47.524;12.404;2023-04-03T15:20:02;3.90;99.90
41882;DHT22;27562;47.524;12.404;2023-04-03T15:22:28;3.80;99.90
41882;DHT22;27562;47.524;12.404;2023-04-03T15:24:54;3.70;99.90
41882;DHT22;27562;47.524;12.404;2023-04-03T15:27:20;3.70;99.90
41882;DHT22;27562;47.524;12.404;2023-04-03T15:29:46;3.60;99.90
41882;DHT22;27562;47.524;12.404;2023-04-03T15:32:12;3.60;99.90
41882;DHT22;27562;47.524;12.404;2023-04-03T15:34:39;3.60;99.90
41882;DHT22;27562;47.524;12.404;2023-04-03T15:37:05;3.60;99.90
41882;DHT22;27562;47.524;12.404;2023-04-03T15:39:31;3.50;99.90
41882;DHT22;27562;47.524;12.404;2023-04-03T15:41:57;3.60;99.90
41882;DHT22;27562;47.524;12.404;2023-04-03T15:44:30;3.60;99.90
41882;DHT22;27562;47.524;12.404;2023-04-03T15:46:55;3.60;99.90
41882;DHT22;27562;47.524;12.404;2023-04-03T15:49:21;3.50;99.90
41882;DHT22;27562;47.524;12.404;2023-04-03T15:51:47;3.50;99.80
41882;DHT22;27562;47.524;12.404;2023-04-03T15:54:13;3.50;99.90
41882;DHT22;27562;47.524;12.404;2023-04-03T15:56:39;3.50;99.90
41882;DHT22;27562;47.524;12.404;2023-04-03T15:59:04;3.50;99.90
41882;DHT22;27562;47.524;12.404;2023-04-03T16:01:31;3.60;99.30
41882;DHT22;27562;47.524;12.404;2023-04-03T16:03:57;3.60;99.90
41882;DHT22;27562;47.524;12.404;2023-04-03T16:06:24;3.50;98.50
41882;DHT22;27562;47.524;12.404;2023-04-03T16:08:50;3.60;99.90
41882;DHT22;27562;47.524;12.404;2023-04-03T16:11:16;3.50;98.90
41882;DHT22;27562;47.524;12.404;2023-04-03T16:13:42;3.50;98.80
41882;DHT22;27562;47.524;12.404;2023-04-03T16:16:08;3.60;99.30
41882;DHT22;27562;47.524;12.404;2023-04-03T16:18:35;3.60;99.20
41882;DHT22;27562;47.524;12.404;2023-04-03T16:21:01;3.60;97.90
41882;DHT22;27562;47.524;12.404;2023-04-03T16:23:26;3.50;98.00
41882;DHT22;27562;47.524;12.404;2023-04-03T16:25:52;3.50;98.60
41882;DHT22;27562;47.524;12.404;2023-04-03T16:28:18;3.50;98.10
41882;DHT22;27562;47.524;12.404;2023-04-03T16:30:45;3.50;97.40
41882;DHT22;27562;47.524;12.404;2023-04-03T16:33:12;3.50;97.80
41882;DHT22;27562;47.524;12.404;2023-04-03T16:35:38;3.40;98.50
41882;DHT22;27562;47.524;12.404;2023-04-03T16:38:04;3.40;99.10
41882;DHT22;27562;47.524;12.404;2023-04-03T16:40:30;3.40;98.90
41882;DHT22;27562;47.524;12.404;2023-04-03T16:42:56;3.50;99.60
41882;DHT22;27562;47.524;12.404;2023-04-03T16:45:22;3.40;99.10
41882;DHT22;27562;47.524;12.404;2023-04-03T16:47:48;3.30;99.60
41882;DHT22;27562;47.524;12.404;2023-04-03T16:50:14;3.20;99.90
41882;DHT22;27562;47.524;12.404;2023-04-03T16:52:39;3.10;99.90
41882;DHT22;27562;47.524;12.404;2023-04-03T16:55:07;3.00;99.90
41882;DHT22;27562;47.524;12.404;2023-04-03T16:57:33;2.90;99.90
41882;DHT22;27562;47.524;12.404;2023-04-03T16:59:59;2.80;99.90
41882;DHT22;27562;47.524;12.404;2023-04-03T17:02:25;2.80;99.90
41882;DHT22;27562;47.524;12.404;2023-04-03T17:04:52;2.80;99.90
41882;DHT22;27562;47.524;12.404;2023-04-03T17:07:22;2.80;99.90